Moab, UT

12:40 AM MDT op 24 augustus 2016 (GMT -0600)
Moab | | Change Station

Hoogte 4239 ft 38.55 °N, 109.52 °W | Updated 4 minutes ago

Clear
Helder
62.8 °F
Voelt als 62.8 °F
N
0.0
Wind Variabel Wind van NO
Gusts 0.0 mijl/u

Vandaag
Hoog -- | Laag -- °F
--% Kans op neerslag
Gisteren
Hoog -- | Laag -- °F
Precip. -- inches
Druk 30.02 inches
Zicht 10.0 mijlen
Wolken Helder
Dauwpunt 53 °F
Vochtigheid 70%
Neerslag 0.00 inches
Dikte sneeuw Niet beschikbaar.
6:40 AM 7:58 PM
Afnemende maan, 60% visible
METAR KCNY 240553Z AUTO 01003KT 10SM CLR 17/13 A3015 RMK AO2 SLP165 60028 T01720133 10261 20161 53014
Druk 30.02 inches
Zicht 10.0 mijlen
Wolken Helder
Dauwpunt 53 °F
Vochtigheid 70%
Neerslag 0.00 inches
Dikte sneeuw Niet beschikbaar.
6:40 AM 7:58 PM
Afnemende maan, 60% visible
METAR KCNY 240553Z AUTO 01003KT 10SM CLR 17/13 A3015 RMK AO2 SLP165 60028 T01720133 10261 20161 53014

10-Day Weather Forecast

Almanac

Astronomie

Aug. 24, 2016 Opkomst Ondergang
Werkelijke tijd
Burgerlijke schemering
Nautische schemering
Astronomische schemering
Maan
Golflengte van het zichtbare licht
Daglengte
Tomorrow will be .
, % of the Moon is Illuminated

Extremen vandaag

State Highs State Lows

Community

WunderPhotos

Upload Photos

1,934,555 foto’s ge-upload!

WunderBlog® & News

Nearby

Luchtkwaliteit

  Luchtkwaliteit LK-index Verontreinigende stof
Not available.

Dikte sneeuw

Station Depth Geometrische hoogte

Aardbevingen

Stad Distance Mag. Time & Date
Minimum magnitude displayed is 2.5.

Watertemperatuur langs de kust

Plaats Temperatuur

Stations

Nabije weerstations

Locatie station Temp. Gevoelstemperatuur Dauwpunt Vochtigheid Wind Precip. Hoogte Geactualiseerd Type
                   

Watches & Warnings

There are currently no watches in effect.